createdAt,value
2019-04-26T00:00:35.187Z,0.30
2019-04-26T00:01:35.184Z,0.30
2019-04-26T00:02:35.195Z,0.60
2019-04-26T00:03:35.167Z,0.30
2019-04-26T00:04:35.192Z,0.40
2019-04-26T00:05:37.914Z,0.60
2019-04-26T00:06:35.223Z,0.30
2019-04-26T00:07:35.175Z,0.50
2019-04-26T00:08:35.193Z,0.20
2019-04-26T00:09:35.241Z,0.30
2019-04-26T00:10:35.176Z,0.50
2019-04-26T00:11:35.168Z,0.20
2019-04-26T00:12:35.171Z,1.20
2019-04-26T00:13:35.211Z,0.40
2019-04-26T00:14:35.204Z,0.60
2019-04-26T00:15:35.191Z,0.40
2019-04-26T00:16:35.190Z,0.50
2019-04-26T00:17:35.258Z,0.30
2019-04-26T00:18:35.218Z,0.20
2019-04-26T00:19:35.188Z,0.20
2019-04-26T00:20:35.202Z,0.20
2019-04-26T00:21:35.204Z,0.20
2019-04-26T00:22:35.181Z,0.40
2019-04-26T00:23:35.212Z,0.50
2019-04-26T00:24:35.258Z,0.30
2019-04-26T00:25:35.179Z,0.20
2019-04-26T00:26:35.251Z,0.40
2019-04-26T00:27:35.215Z,0.30
2019-04-26T00:28:35.255Z,0.30
2019-04-26T00:29:35.216Z,0.30
2019-04-26T00:30:35.251Z,0.30
2019-04-26T00:31:35.218Z,0.30
2019-04-26T00:32:35.211Z,0.60
2019-04-26T00:33:35.224Z,0.20
2019-04-26T00:34:35.254Z,0.70
2019-04-26T00:35:46.804Z,0.30
2019-04-26T00:36:35.218Z,0.20
2019-04-26T00:37:35.221Z,0.60
2019-04-26T00:38:35.193Z,0.10
2019-04-26T00:39:35.216Z,0.30
2019-04-26T00:40:35.204Z,0.20
2019-04-26T00:41:35.208Z,0.20
2019-04-26T00:43:35.258Z,0.50
2019-04-26T00:44:35.231Z,0.20
2019-04-26T00:45:35.255Z,0.20
2019-04-26T00:46:35.246Z,0.50
2019-04-26T00:47:35.267Z,0.50
2019-04-26T00:48:35.279Z,0.50
2019-04-26T00:49:43.627Z,0.10
2019-04-26T00:50:35.328Z,0.20
2019-04-26T00:51:35.299Z,0.30
2019-04-26T00:52:35.362Z,0.10
2019-04-26T00:53:35.220Z,0.30
2019-04-26T00:54:35.259Z,0.30
2019-04-26T00:55:35.291Z,0.30
2019-04-26T00:56:35.242Z,0.20
2019-04-26T00:57:35.285Z,0.20
2019-04-26T00:58:35.279Z,0.30
2019-04-26T00:59:35.246Z,0.20
2019-04-26T01:00:35.300Z,0.20
2019-04-26T01:01:35.287Z,0.60
2019-04-26T01:02:35.301Z,0.40
2019-04-26T01:03:35.287Z,0.40
2019-04-26T01:04:35.304Z,0.30
2019-04-26T01:05:35.293Z,0.10
2019-04-26T01:06:35.263Z,0.40
2019-04-26T01:07:35.271Z,0.30
2019-04-26T01:08:35.276Z,0.20
2019-04-26T01:09:35.331Z,0.30
2019-04-26T01:10:35.295Z,0.30
2019-04-26T01:11:35.286Z,0.30
2019-04-26T01:12:35.252Z,0.20
2019-04-26T01:13:35.277Z,0.10
2019-04-26T01:14:35.278Z,0.30
2019-04-26T01:15:35.280Z,0.30
2019-04-26T01:16:35.309Z,0.30
2019-04-26T01:17:35.312Z,0.30
2019-04-26T01:18:35.277Z,0.40
2019-04-26T01:19:35.296Z,0.80
2019-04-26T01:20:35.366Z,0.40
2019-04-26T01:21:35.296Z,0.20
2019-04-26T01:22:35.278Z,0.10
2019-04-26T01:23:35.290Z,0.20
2019-04-26T01:24:35.307Z,0.30
2019-04-26T01:25:35.294Z,0.30
2019-04-26T01:26:35.281Z,0.20
2019-04-26T01:27:35.308Z,0.30
2019-04-26T01:28:35.298Z,0.20
2019-04-26T01:29:35.292Z,0.30
2019-04-26T01:30:35.329Z,0.50
2019-04-26T01:31:35.331Z,0.30
2019-04-26T01:32:35.327Z,0.10
2019-04-26T01:33:35.300Z,0.10
2019-04-26T01:34:35.326Z,0.20
2019-04-26T01:35:35.349Z,0.30
2019-04-26T01:36:35.319Z,0.40
2019-04-26T01:37:35.321Z,0.20
2019-04-26T01:38:35.324Z,0.90
2019-04-26T01:39:35.310Z,0.20
2019-04-26T01:40:35.307Z,0.40
2019-04-26T01:41:35.295Z,0.20
2019-04-26T01:42:35.340Z,0.20
2019-04-26T01:43:35.320Z,0.50
2019-04-26T01:44:35.347Z,0.10
2019-04-26T01:45:35.348Z,0.60
2019-04-26T01:46:35.348Z,0.10
2019-04-26T01:47:35.331Z,0.30
2019-04-26T01:48:35.331Z,0.10
2019-04-26T01:49:35.349Z,0.30
2019-04-26T01:50:35.375Z,0.30
2019-04-26T01:51:35.332Z,0.30
2019-04-26T01:52:35.297Z,0.40
2019-04-26T01:53:35.319Z,0.30
2019-04-26T01:54:35.346Z,0.20
2019-04-26T01:55:35.337Z,0.30
2019-04-26T01:56:35.340Z,0.30
2019-04-26T01:57:35.334Z,0.40
2019-04-26T01:58:35.326Z,0.10
2019-04-26T01:59:35.335Z,0.20
2019-04-26T02:00:35.369Z,0.50
2019-04-26T02:01:35.372Z,0.20
2019-04-26T02:02:35.365Z,0.20
2019-04-26T02:03:35.318Z,0.20
2019-04-26T02:04:35.334Z,0.20
2019-04-26T02:05:35.394Z,0.10
2019-04-26T02:06:35.394Z,0.20
2019-04-26T02:07:35.343Z,0.60
2019-04-26T02:08:35.325Z,0.30
2019-04-26T02:09:35.362Z,0.30
2019-04-26T02:10:35.363Z,0.30
2019-04-26T02:11:35.361Z,0.20
2019-04-26T02:12:35.390Z,0.20
2019-04-26T02:13:35.343Z,0.20
2019-04-26T02:14:35.340Z,0.20
2019-04-26T02:15:35.451Z,0.40
2019-04-26T02:16:35.351Z,0.10
2019-04-26T02:17:35.350Z,0.20
2019-04-26T02:18:35.332Z,0.20
2019-04-26T02:19:35.330Z,0.60
2019-04-26T02:20:35.322Z,0.10
2019-04-26T02:21:35.354Z,0.20
2019-04-26T02:22:35.385Z,0.30
2019-04-26T02:23:35.366Z,0.30
2019-04-26T02:24:35.367Z,0.40
2019-04-26T02:25:35.334Z,0.40
2019-04-26T02:26:35.380Z,0.50
2019-04-26T02:27:35.395Z,0.20
2019-04-26T02:28:35.343Z,0.10
2019-04-26T02:29:35.349Z,0.20
2019-04-26T02:30:36.726Z,0.10
2019-04-26T02:31:37.573Z,0.20
2019-04-26T02:32:37.016Z,0.30
2019-04-26T02:33:36.730Z,0.20
2019-04-26T02:34:37.682Z,0.20
2019-04-26T02:35:35.892Z,0.40
2019-04-26T02:36:53.070Z,0.20
2019-04-26T02:37:36.757Z,0.30
2019-04-26T02:38:36.675Z,0.20
2019-04-26T02:39:36.007Z,0.50
2019-04-26T02:40:36.746Z,0.10
2019-04-26T02:41:37.082Z,0.20
2019-04-26T02:42:36.724Z,0.40
2019-04-26T02:43:37.143Z,0.30
2019-04-26T02:44:37.012Z,0.30
2019-04-26T02:45:36.763Z,0.50
2019-04-26T02:46:36.644Z,0.20
2019-04-26T02:47:38.490Z,0.20
2019-04-26T02:48:36.522Z,0.30
2019-04-26T02:49:37.080Z,0.20
2019-04-26T02:50:36.660Z,0.40
2019-04-26T02:51:36.308Z,0.20
2019-04-26T02:52:35.915Z,0.30
2019-04-26T02:53:36.953Z,0.20
2019-04-26T02:54:36.562Z,0.30
2019-04-26T02:55:38.847Z,0.20
2019-04-26T02:56:36.205Z,0.10
2019-04-26T02:57:36.625Z,0.30
2019-04-26T02:58:37.328Z,0.30
2019-04-26T02:59:37.782Z,0.80
2019-04-26T03:00:35.898Z,0.20
2019-04-26T03:01:36.624Z,0.20
2019-04-26T03:02:37.274Z,0.10
2019-04-26T03:03:36.348Z,0.20
2019-04-26T03:04:36.452Z,0.30
2019-04-26T03:05:35.741Z,0.10
2019-04-26T03:06:37.318Z,0.20
2019-04-26T03:07:35.921Z,0.10
2019-04-26T03:08:37.126Z,0.20
2019-04-26T03:09:36.911Z,0.20
2019-04-26T03:10:36.593Z,0.10
2019-04-26T03:11:37.037Z,0.30
2019-04-26T03:12:35.740Z,0.20
2019-04-26T03:13:36.410Z,0.20
2019-04-26T03:14:36.935Z,0.20
2019-04-26T03:15:37.014Z,0.50
2019-04-26T03:16:37.276Z,0.20
2019-04-26T03:17:37.289Z,0.30
2019-04-26T03:18:36.881Z,0.20
2019-04-26T03:19:36.222Z,0.20
2019-04-26T03:20:36.278Z,0.10
2019-04-26T03:21:36.385Z,0.10
2019-04-26T03:22:36.660Z,0.90
2019-04-26T03:23:53.201Z,0.20
2019-04-26T03:24:37.216Z,0.20
2019-04-26T03:25:36.604Z,0.10
2019-04-26T03:26:36.671Z,0.20
2019-04-26T03:27:39.731Z,0.10
2019-04-26T03:28:37.669Z,0.20
2019-04-26T03:29:36.987Z,0.40
2019-04-26T03:30:39.155Z,0.30
2019-04-26T03:31:42.856Z,1.00
2019-04-26T03:32:40.394Z,0.20
2019-04-26T03:33:39.815Z,0.20
2019-04-26T03:34:40.457Z,0.30
2019-04-26T03:35:43.936Z,0.40
2019-04-26T03:36:37.401Z,0.20
2019-04-26T03:37:36.526Z,0.20
2019-04-26T03:38:36.259Z,0.20
2019-04-26T03:39:37.145Z,0.50
2019-04-26T03:40:36.842Z,0.20
2019-04-26T03:41:37.123Z,0.20
2019-04-26T03:42:37.214Z,0.30
2019-04-26T03:43:36.450Z,0.10
2019-04-26T03:44:37.160Z,0.20
2019-04-26T03:45:36.416Z,0.20
2019-04-26T03:46:36.782Z,0.10
2019-04-26T03:47:37.908Z,0.50
2019-04-26T03:48:37.271Z,0.20
2019-04-26T03:49:36.183Z,0.10
2019-04-26T03:50:37.317Z,0.20
2019-04-26T03:51:37.091Z,0.40
2019-04-26T03:52:37.323Z,0.30
2019-04-26T03:53:36.191Z,0.20
2019-04-26T03:54:35.941Z,0.10
2019-04-26T03:55:35.943Z,0.10
2019-04-26T03:56:36.652Z,0.30
2019-04-26T03:57:36.956Z,0.20
2019-04-26T03:58:37.751Z,0.40
2019-04-26T03:59:36.893Z,0.30
2019-04-26T04:00:37.214Z,0.20
2019-04-26T04:01:36.858Z,0.20
2019-04-26T04:02:36.861Z,0.10
2019-04-26T04:03:37.612Z,0.20
2019-04-26T04:04:37.074Z,0.20
2019-04-26T04:05:35.949Z,0.20
2019-04-26T04:06:52.743Z,0.20
2019-04-26T04:07:36.901Z,0.30
2019-04-26T04:08:36.317Z,0.10
2019-04-26T04:09:35.847Z,0.10
2019-04-26T04:10:37.480Z,0.20
2019-04-26T04:11:36.422Z,0.20
2019-04-26T04:12:36.209Z,0.30
2019-04-26T04:13:36.765Z,0.20
2019-04-26T04:14:37.739Z,0.10
2019-04-26T04:15:37.898Z,0.20
2019-04-26T04:16:36.793Z,0.10
2019-04-26T04:17:37.398Z,0.10
2019-04-26T04:18:36.818Z,0.20
2019-04-26T04:19:35.478Z,0.10
2019-04-26T04:20:35.521Z,0.20
2019-04-26T04:21:35.505Z,0.20
2019-04-26T04:22:35.553Z,0.20
2019-04-26T04:23:35.469Z,0.10
2019-04-26T04:24:35.510Z,0.20
2019-04-26T04:25:35.519Z,0.20
2019-04-26T04:26:35.532Z,0.20
2019-04-26T04:27:35.507Z,0.20
2019-04-26T04:28:35.517Z,0.20
2019-04-26T04:29:42.527Z,0.20
2019-04-26T04:30:35.516Z,0.20
2019-04-26T04:31:35.464Z,0.70
2019-04-26T04:32:35.525Z,0.10
2019-04-26T04:33:35.505Z,0.50
2019-04-26T04:34:35.532Z,0.20
2019-04-26T04:35:35.565Z,0.20
2019-04-26T04:36:35.515Z,0.20
2019-04-26T04:37:52.241Z,0.10
2019-04-26T04:38:35.569Z,0.10
2019-04-26T04:39:35.492Z,0.20
2019-04-26T04:40:35.549Z,0.20
2019-04-26T04:41:35.547Z,0.30
2019-04-26T04:42:35.620Z,0.30
2019-04-26T04:43:35.540Z,0.20
2019-04-26T04:44:35.490Z,0.30
2019-04-26T04:45:35.596Z,0.20
2019-04-26T04:46:35.512Z,0.10
2019-04-26T04:47:35.547Z,0.20
2019-04-26T04:48:35.524Z,0.10
2019-04-26T04:49:35.555Z,0.30
2019-04-26T04:50:35.522Z,0.20
2019-04-26T04:51:35.490Z,0.20
2019-04-26T04:52:35.544Z,0.20
2019-04-26T04:53:35.568Z,0.20
2019-04-26T04:54:35.504Z,0.30
2019-04-26T04:55:35.566Z,0.20
2019-04-26T04:56:35.541Z,0.20
2019-04-26T04:57:35.519Z,0.20
2019-04-26T04:58:35.545Z,0.20
2019-04-26T04:59:35.546Z,0.20
2019-04-26T05:00:35.594Z,0.10
2019-04-26T05:01:35.524Z,0.20
2019-04-26T05:02:35.550Z,0.20
2019-04-26T05:03:35.502Z,0.10
2019-04-26T05:04:35.568Z,0.20
2019-04-26T05:05:35.574Z,0.10
2019-04-26T05:06:35.529Z,0.20
2019-04-26T05:07:35.623Z,0.10
2019-04-26T05:08:35.497Z,0.30
2019-04-26T05:09:35.550Z,0.10
2019-04-26T05:10:35.525Z,0.20
2019-04-26T05:11:35.612Z,0.10
2019-04-26T05:12:35.573Z,0.20
2019-04-26T05:13:35.561Z,0.30
2019-04-26T05:14:35.530Z,0.10
2019-04-26T05:15:35.584Z,0.20
2019-04-26T05:16:35.555Z,0.20
2019-04-26T05:17:35.547Z,0.10
2019-04-26T05:18:35.584Z,0.20
2019-04-26T05:19:35.578Z,0.30
2019-04-26T05:20:35.553Z,0.40
2019-04-26T05:21:35.595Z,0.10
2019-04-26T05:22:35.590Z,0.70
2019-04-26T05:23:35.582Z,0.20
2019-04-26T05:24:35.530Z,0.30
2019-04-26T05:25:35.607Z,0.10
2019-04-26T05:26:35.579Z,0.10
2019-04-26T05:27:35.601Z,0.10
2019-04-26T05:28:35.576Z,0.20
2019-04-26T05:29:35.570Z,0.20
2019-04-26T05:30:35.562Z,0.20
2019-04-26T05:31:35.568Z,0.10
2019-04-26T05:32:35.549Z,0.20
2019-04-26T05:33:35.558Z,0.20
2019-04-26T05:34:35.552Z,0.20
2019-04-26T05:35:35.592Z,0.10
2019-04-26T05:36:35.585Z,0.10
2019-04-26T05:37:37.178Z,0.20
2019-04-26T05:38:35.605Z,0.20
2019-04-26T05:39:35.601Z,0.10
2019-04-26T05:40:35.575Z,0.10
2019-04-26T05:41:35.587Z,0.20
2019-04-26T05:42:35.579Z,0.20
2019-04-26T05:43:35.563Z,0.10
2019-04-26T05:44:35.603Z,0.20
2019-04-26T05:45:35.540Z,0.10
2019-04-26T05:46:35.620Z,0.20
2019-04-26T05:47:35.592Z,0.20
2019-04-26T05:48:35.569Z,0.30
2019-04-26T05:49:35.585Z,0.30
2019-04-26T05:50:35.546Z,0.10
2019-04-26T05:51:35.576Z,0.10
2019-04-26T05:52:35.638Z,0.30
2019-04-26T05:53:35.568Z,0.10
2019-04-26T05:54:35.610Z,0.60
2019-04-26T05:55:35.554Z,1.90
2019-04-26T05:56:35.622Z,2.20
2019-04-26T05:57:35.571Z,0.30
2019-04-26T05:58:35.598Z,1.20
2019-04-26T05:59:35.586Z,1.20
2019-04-26T06:00:35.628Z,0.40
2019-04-26T06:01:35.590Z,1.80
2019-04-26T06:02:35.615Z,0.90
2019-04-26T06:03:35.606Z,1.90
2019-04-26T06:04:35.650Z,1.50
2019-04-26T06:05:35.636Z,0.20
2019-04-26T06:06:35.605Z,0.60
2019-04-26T06:07:35.601Z,0.90
2019-04-26T06:08:35.618Z,0.80
2019-04-26T06:09:35.629Z,1.00
2019-04-26T06:10:35.710Z,1.00
2019-04-26T06:11:35.646Z,0.70
2019-04-26T06:12:35.578Z,0.30
2019-04-26T06:13:35.629Z,0.30
2019-04-26T06:14:35.600Z,0.30
2019-04-26T06:15:35.623Z,1.10
2019-04-26T06:16:35.644Z,1.00
2019-04-26T06:17:35.585Z,0.30
2019-04-26T06:18:35.653Z,1.50
2019-04-26T06:19:35.633Z,1.00
2019-04-26T06:20:35.623Z,0.50
2019-04-26T06:21:35.586Z,0.80
2019-04-26T06:22:35.611Z,1.20
2019-04-26T06:23:35.581Z,0.90
2019-04-26T06:24:35.575Z,0.60
2019-04-26T06:25:35.629Z,0.90
2019-04-26T06:26:35.611Z,0.40
2019-04-26T06:27:35.630Z,0.90
2019-04-26T06:28:35.616Z,1.00
2019-04-26T06:29:35.630Z,0.40
2019-04-26T06:30:45.300Z,2.10
2019-04-26T06:31:35.607Z,0.70
2019-04-26T06:32:35.719Z,1.40
2019-04-26T06:33:35.640Z,1.30
2019-04-26T06:34:35.613Z,0.30
2019-04-26T06:35:35.615Z,0.50
2019-04-26T06:36:35.663Z,0.90
2019-04-26T06:37:35.599Z,1.10
2019-04-26T06:38:43.804Z,0.50
2019-04-26T06:39:35.623Z,0.40
2019-04-26T06:40:41.827Z,0.40
2019-04-26T06:41:35.645Z,0.80
2019-04-26T06:42:35.731Z,0.80
2019-04-26T06:43:35.614Z,0.50
2019-04-26T06:44:35.633Z,0.30
2019-04-26T06:45:35.609Z,0.50
2019-04-26T06:46:35.667Z,0.60
2019-04-26T06:47:35.599Z,0.20
2019-04-26T06:48:35.647Z,0.80
2019-04-26T06:49:35.661Z,0.50
2019-04-26T06:50:35.681Z,0.30
2019-04-26T06:51:35.694Z,0.40
2019-04-26T06:52:35.648Z,0.70
2019-04-26T06:53:35.687Z,0.30
2019-04-26T06:54:35.661Z,1.20
2019-04-26T06:55:35.661Z,1.00
2019-04-26T06:56:35.738Z,0.20
2019-04-26T06:57:35.678Z,0.30
2019-04-26T06:58:35.676Z,1.40
2019-04-26T06:59:36.600Z,0.40
2019-04-26T07:00:35.653Z,0.60
2019-04-26T07:01:35.640Z,0.50
2019-04-26T07:02:35.679Z,0.70
2019-04-26T07:03:35.695Z,0.40
2019-04-26T07:04:35.718Z,0.50
2019-04-26T07:05:35.651Z,0.30
2019-04-26T07:06:35.705Z,0.90
2019-04-26T07:07:35.703Z,0.60
2019-04-26T07:08:35.663Z,0.50
2019-04-26T07:09:35.666Z,0.60
2019-04-26T07:10:35.676Z,0.40
2019-04-26T07:11:35.770Z,0.70
2019-04-26T07:12:35.705Z,0.30
2019-04-26T07:13:35.733Z,0.50
2019-04-26T07:14:35.674Z,0.60
2019-04-26T07:15:35.683Z,0.60
2019-04-26T07:16:35.674Z,0.30
2019-04-26T07:17:35.689Z,0.40
2019-04-26T07:18:35.676Z,0.30
2019-04-26T07:19:35.720Z,0.10
2019-04-26T07:20:35.715Z,0.40
2019-04-26T07:21:35.645Z,0.20
2019-04-26T07:22:35.913Z,0.30
2019-04-26T07:23:35.676Z,0.20
2019-04-26T07:24:35.699Z,0.80
2019-04-26T07:25:35.723Z,0.50
2019-04-26T07:26:35.645Z,0.30
2019-04-26T07:27:35.667Z,1.10
2019-04-26T07:28:35.667Z,0.20
2019-04-26T07:29:35.676Z,0.20
2019-04-26T07:30:35.732Z,0.40
2019-04-26T07:31:35.634Z,0.40
2019-04-26T07:32:35.651Z,0.40
2019-04-26T07:33:35.676Z,0.30
2019-04-26T07:34:35.650Z,0.30
2019-04-26T07:35:35.696Z,0.60
2019-04-26T07:36:35.704Z,0.40
2019-04-26T07:37:35.666Z,0.20
2019-04-26T07:38:35.661Z,0.70
2019-04-26T07:39:35.724Z,0.20
2019-04-26T07:40:35.687Z,0.80
2019-04-26T07:41:35.701Z,0.20
2019-04-26T07:42:35.738Z,0.70
2019-04-26T07:43:35.688Z,0.20
2019-04-26T07:44:35.669Z,0.30
2019-04-26T07:45:35.653Z,0.20
2019-04-26T07:46:35.701Z,0.20
2019-04-26T07:47:35.670Z,0.30
2019-04-26T07:48:35.699Z,0.20
2019-04-26T07:49:35.702Z,0.30
2019-04-26T07:50:35.671Z,0.10
2019-04-26T07:51:35.735Z,0.30
2019-04-26T07:52:35.680Z,0.20
2019-04-26T07:53:35.679Z,0.90
2019-04-26T07:54:35.751Z,0.30
2019-04-26T07:55:35.703Z,0.50
2019-04-26T07:56:35.740Z,0.20
2019-04-26T07:57:35.681Z,0.30
2019-04-26T07:58:35.713Z,0.20
2019-04-26T07:59:35.806Z,0.20
2019-04-26T08:00:44.663Z,0.30
2019-04-26T08:01:35.754Z,0.30
2019-04-26T08:02:35.705Z,0.30
2019-04-26T08:03:35.684Z,0.30
2019-04-26T08:04:35.730Z,0.80
2019-04-26T08:05:35.729Z,0.40
2019-04-26T08:06:35.750Z,0.40
2019-04-26T08:07:35.687Z,0.10
2019-04-26T08:08:35.716Z,0.20
2019-04-26T08:09:35.703Z,0.10
2019-04-26T08:10:35.765Z,0.60
2019-04-26T08:11:35.781Z,0.20
2019-04-26T08:12:35.694Z,0.80
2019-04-26T08:13:35.706Z,0.20
2019-04-26T08:14:35.738Z,0.20
2019-04-26T08:15:35.716Z,0.20
2019-04-26T08:16:35.826Z,0.50
2019-04-26T08:17:35.707Z,0.20
2019-04-26T08:18:35.761Z,0.30
2019-04-26T08:19:35.728Z,0.10
2019-04-26T08:20:35.742Z,0.50
2019-04-26T08:21:35.737Z,0.20
2019-04-26T08:22:35.739Z,0.30
2019-04-26T08:23:41.697Z,0.20
2019-04-26T08:24:35.725Z,0.10
2019-04-26T08:25:35.738Z,0.30
2019-04-26T08:26:35.779Z,0.30
2019-04-26T08:27:35.722Z,0.20
2019-04-26T08:28:35.878Z,0.20
2019-04-26T08:29:35.718Z,0.20
2019-04-26T08:30:35.693Z,0.20
2019-04-26T08:31:35.764Z,0.20
2019-04-26T08:32:35.726Z,0.20
2019-04-26T08:33:35.751Z,0.20
2019-04-26T08:34:35.770Z,0.30
2019-04-26T08:35:35.732Z,0.30
2019-04-26T08:36:35.774Z,0.20
2019-04-26T08:37:36.468Z,0.20
2019-04-26T08:38:35.757Z,0.20
2019-04-26T08:39:44.945Z,0.30
2019-04-26T08:40:35.757Z,0.20
2019-04-26T08:41:39.136Z,0.30
2019-04-26T08:42:35.757Z,0.50
2019-04-26T08:43:35.764Z,0.10
2019-04-26T08:44:35.769Z,0.80
2019-04-26T08:45:35.784Z,0.30
2019-04-26T08:46:36.248Z,0.50
2019-04-26T08:47:35.738Z,0.10
2019-04-26T08:48:35.749Z,0.30
2019-04-26T08:49:39.107Z,0.20
2019-04-26T08:50:35.730Z,0.30
2019-04-26T08:51:35.763Z,0.10
2019-04-26T08:52:35.806Z,0.30
2019-04-26T08:53:35.788Z,0.10
2019-04-26T08:54:35.802Z,0.30
2019-04-26T08:55:35.782Z,0.20
2019-04-26T08:56:35.728Z,0.20
2019-04-26T08:57:35.779Z,0.60
2019-04-26T08:58:35.763Z,0.20
2019-04-26T08:59:35.782Z,0.20
2019-04-26T09:00:35.779Z,0.10
2019-04-26T09:01:35.734Z,0.20
2019-04-26T09:02:35.778Z,0.30
2019-04-26T09:03:35.750Z,0.20
2019-04-26T09:04:35.779Z,0.20
2019-04-26T09:05:35.732Z,0.20
2019-04-26T09:06:35.808Z,0.90
2019-04-26T09:07:36.477Z,0.30
2019-04-26T09:08:39.300Z,0.50
2019-04-26T09:09:35.769Z,0.10
2019-04-26T09:10:39.297Z,0.20
2019-04-26T09:11:35.799Z,0.30
2019-04-26T09:12:35.791Z,0.20
2019-04-26T09:13:35.849Z,0.20
2019-04-26T09:14:35.801Z,0.20
2019-04-26T09:15:35.771Z,0.20
2019-04-26T09:16:35.801Z,0.20
2019-04-26T09:17:35.794Z,0.20
2019-04-26T09:18:43.231Z,0.20
2019-04-26T09:19:35.822Z,0.30
2019-04-26T09:20:38.546Z,0.20
2019-04-26T09:21:35.805Z,0.20
2019-04-26T09:22:35.797Z,0.20
2019-04-26T09:23:40.181Z,0.20
2019-04-26T09:24:35.822Z,0.10
2019-04-26T09:25:39.166Z,0.20
2019-04-26T09:26:35.772Z,0.20
2019-04-26T09:27:35.801Z,0.60
2019-04-26T09:28:35.798Z,0.30
2019-04-26T09:29:35.784Z,0.80
2019-04-26T09:30:38.480Z,8.70
2019-04-26T09:31:35.780Z,15.00
2019-04-26T09:32:35.815Z,27.50
2019-04-26T09:33:36.292Z,14.50
2019-04-26T09:34:35.802Z,29.60
2019-04-26T09:35:35.824Z,13.30
2019-04-26T09:36:35.839Z,16.00
2019-04-26T09:37:35.796Z,20.20
2019-04-26T09:38:35.820Z,20.80
2019-04-26T09:39:35.829Z,21.30
2019-04-26T09:40:35.800Z,17.10
2019-04-26T09:41:35.808Z,21.00
2019-04-26T09:42:39.238Z,21.10
2019-04-26T09:43:35.797Z,22.20
2019-04-26T09:44:37.629Z,18.80
2019-04-26T09:45:35.832Z,22.30
2019-04-26T09:46:35.823Z,19.60
2019-04-26T09:47:35.839Z,22.10
2019-04-26T09:48:36.835Z,20.40
2019-04-26T09:49:37.407Z,20.00
2019-04-26T09:50:35.836Z,22.60
2019-04-26T09:51:39.016Z,21.50
2019-04-26T09:52:35.832Z,18.90
2019-04-26T09:53:35.832Z,21.90
2019-04-26T09:54:35.839Z,16.30
2019-04-26T09:55:35.985Z,22.10
2019-04-26T09:56:35.857Z,15.70
2019-04-26T09:57:35.811Z,16.20
2019-04-26T09:58:35.857Z,16.40
2019-04-26T09:59:36.349Z,13.40
2019-04-26T10:00:35.832Z,17.30
2019-04-26T10:01:35.842Z,14.60
2019-04-26T10:02:35.826Z,14.40
2019-04-26T10:03:35.850Z,15.30
2019-04-26T10:04:35.816Z,14.40
2019-04-26T10:05:35.869Z,13.10
2019-04-26T10:06:35.811Z,9.10
2019-04-26T10:07:37.538Z,13.10
2019-04-26T10:08:35.849Z,9.60
2019-04-26T10:09:35.843Z,9.40
2019-04-26T10:10:36.467Z,7.30
2019-04-26T10:11:35.820Z,8.70
2019-04-26T10:12:35.881Z,9.40
2019-04-26T10:13:35.812Z,7.10
2019-04-26T10:14:35.842Z,8.20
2019-04-26T10:15:38.840Z,11.30
2019-04-26T10:16:37.711Z,8.70
2019-04-26T10:17:35.846Z,8.50
2019-04-26T10:18:35.844Z,8.20
2019-04-26T10:19:35.830Z,9.80
2019-04-26T10:20:35.976Z,9.10
2019-04-26T10:21:35.899Z,6.70
2019-04-26T10:22:35.953Z,8.50
2019-04-26T10:23:35.875Z,6.70
2019-04-26T10:24:35.827Z,8.10
2019-04-26T10:25:35.854Z,5.80
2019-04-26T10:26:35.816Z,10.00
2019-04-26T10:27:36.389Z,7.20
2019-04-26T10:28:35.881Z,6.70
2019-04-26T10:29:35.999Z,7.90
2019-04-26T10:30:38.338Z,7.90
2019-04-26T10:31:35.912Z,7.70
2019-04-26T10:32:35.930Z,9.40
2019-04-26T10:33:36.634Z,6.00
2019-04-26T10:34:35.952Z,5.00
2019-04-26T10:35:36.016Z,5.70
2019-04-26T10:36:35.921Z,5.90
2019-04-26T10:37:39.727Z,5.00
2019-04-26T10:38:35.877Z,4.70
2019-04-26T10:39:37.025Z,3.40
2019-04-26T10:40:36.010Z,5.20
2019-04-26T10:41:35.899Z,5.50
2019-04-26T10:42:35.950Z,7.70
2019-04-26T10:43:36.074Z,4.90
2019-04-26T10:44:39.471Z,4.90
2019-04-26T10:45:35.899Z,4.80
2019-04-26T10:46:35.908Z,6.90
2019-04-26T10:47:38.407Z,4.10
2019-04-26T10:48:35.890Z,4.50
2019-04-26T10:49:36.063Z,6.30
2019-04-26T10:50:35.869Z,5.90
2019-04-26T10:51:38.604Z,5.00
2019-04-26T10:52:35.910Z,4.10
2019-04-26T10:53:35.947Z,4.80
2019-04-26T10:54:36.847Z,4.00
2019-04-26T10:55:35.870Z,3.40
2019-04-26T10:56:35.850Z,3.70
2019-04-26T10:57:35.885Z,5.10
2019-04-26T10:58:36.308Z,3.90
2019-04-26T10:59:39.656Z,3.50
2019-04-26T11:00:35.881Z,4.30
2019-04-26T11:01:35.950Z,4.40
2019-04-26T11:02:35.912Z,4.50
2019-04-26T11:03:35.941Z,3.60
2019-04-26T11:04:37.390Z,2.00
2019-04-26T11:05:35.930Z,3.60
2019-04-26T11:06:35.879Z,4.60
2019-04-26T11:07:35.898Z,3.30
2019-04-26T11:08:35.988Z,3.90
2019-04-26T11:09:35.900Z,5.90
2019-04-26T11:10:47.681Z,5.20
2019-04-26T11:11:35.890Z,3.80
2019-04-26T11:12:35.882Z,3.80
2019-04-26T11:13:35.937Z,5.20
2019-04-26T11:14:35.917Z,3.80
2019-04-26T11:15:35.917Z,3.70
2019-04-26T11:16:37.116Z,4.70
2019-04-26T11:17:35.920Z,3.80
2019-04-26T11:18:35.912Z,5.60
2019-04-26T11:19:36.621Z,3.20
2019-04-26T11:20:35.953Z,2.40
2019-04-26T11:21:35.878Z,3.30
2019-04-26T11:22:37.578Z,4.20
2019-04-26T11:23:35.911Z,3.40
2019-04-26T11:24:35.957Z,3.60
2019-04-26T11:25:35.964Z,3.00
2019-04-26T11:26:36.272Z,4.20
2019-04-26T11:27:35.899Z,3.50
2019-04-26T11:28:35.925Z,2.00
2019-04-26T11:29:35.941Z,2.80
2019-04-26T11:30:35.912Z,2.20
2019-04-26T11:31:35.933Z,3.60
2019-04-26T11:32:36.865Z,3.60
2019-04-26T11:33:44.697Z,5.20
2019-04-26T11:34:35.974Z,2.90
2019-04-26T11:35:36.032Z,3.70
2019-04-26T11:36:37.546Z,2.20
2019-04-26T11:37:35.914Z,2.50
2019-04-26T11:38:35.994Z,2.80
2019-04-26T11:39:36.615Z,3.10
2019-04-26T11:40:35.950Z,2.60
2019-04-26T11:41:37.627Z,2.80
2019-04-26T11:42:35.912Z,2.50
2019-04-26T11:43:35.969Z,2.50
2019-04-26T11:44:35.948Z,2.10
2019-04-26T11:45:35.928Z,4.10
2019-04-26T11:46:44.626Z,2.40
2019-04-26T11:47:37.088Z,2.30
2019-04-26T11:48:35.961Z,2.70
2019-04-26T11:49:37.343Z,2.40
2019-04-26T11:50:35.943Z,4.10
2019-04-26T11:51:35.961Z,4.20
2019-04-26T11:52:37.378Z,2.50
2019-04-26T11:53:35.921Z,2.50
2019-04-26T11:54:35.985Z,1.50
2019-04-26T11:55:35.960Z,3.40
2019-04-26T11:56:37.569Z,2.20
2019-04-26T11:57:35.948Z,2.70
2019-04-26T11:58:35.962Z,2.30
2019-04-26T11:59:35.943Z,2.30
2019-04-26T12:00:35.946Z,2.20
2019-04-26T12:01:36.705Z,3.30
2019-04-26T12:02:35.957Z,2.50
2019-04-26T12:03:35.949Z,3.30
2019-04-26T12:04:35.927Z,2.30
2019-04-26T12:05:35.927Z,2.40
2019-04-26T12:06:35.968Z,2.30
2019-04-26T12:07:35.990Z,1.90
2019-04-26T12:08:35.965Z,1.50
2019-04-26T12:09:35.957Z,2.40
2019-04-26T12:10:35.961Z,3.10
2019-04-26T12:11:35.941Z,1.40
2019-04-26T12:12:35.944Z,1.80
2019-04-26T12:13:35.969Z,3.30
2019-04-26T12:14:35.964Z,1.30
2019-04-26T12:15:39.006Z,2.40
2019-04-26T12:16:47.085Z,1.20
2019-04-26T12:17:36.812Z,1.70
2019-04-26T12:18:35.939Z,1.70
2019-04-26T12:19:35.940Z,3.00
2019-04-26T12:20:35.959Z,1.20
2019-04-26T12:21:35.977Z,3.90
2019-04-26T12:22:39.357Z,3.60
2019-04-26T12:23:35.981Z,3.70
2019-04-26T12:24:35.968Z,1.80
2019-04-26T12:25:38.653Z,2.50
2019-04-26T12:26:42.881Z,1.60
2019-04-26T12:27:36.041Z,1.70
2019-04-26T12:28:36.289Z,1.70
2019-04-26T12:29:35.953Z,2.20
2019-04-26T12:30:35.984Z,1.80
2019-04-26T12:31:36.000Z,1.90
2019-04-26T12:32:36.013Z,2.50
2019-04-26T12:33:39.091Z,1.90
2019-04-26T12:34:36.033Z,1.30
2019-04-26T12:35:35.983Z,1.40
2019-04-26T12:36:36.033Z,3.00
2019-04-26T12:37:36.035Z,2.00
2019-04-26T12:38:35.978Z,1.20
2019-04-26T12:39:36.714Z,1.50
2019-04-26T12:40:35.975Z,1.40
2019-04-26T12:41:40.247Z,1.70
2019-04-26T12:42:36.082Z,2.00
2019-04-26T12:43:35.994Z,2.80
2019-04-26T12:44:36.826Z,1.40
2019-04-26T12:45:35.975Z,3.10
2019-04-26T12:46:36.001Z,2.60
2019-04-26T12:47:38.622Z,1.60
2019-04-26T12:48:35.976Z,1.40
2019-04-26T12:49:36.020Z,1.40
2019-04-26T12:50:37.636Z,1.80
2019-04-26T12:51:38.251Z,1.40
2019-04-26T12:52:37.430Z,1.40
2019-04-26T12:53:35.977Z,1.50
2019-04-26T12:54:39.023Z,1.40
2019-04-26T12:55:35.980Z,1.40
2019-04-26T12:56:35.997Z,1.80
2019-04-26T12:57:36.451Z,2.20
2019-04-26T12:58:36.000Z,1.10
2019-04-26T12:59:43.932Z,2.10
2019-04-26T13:00:37.608Z,1.40
2019-04-26T13:01:36.012Z,1.30
2019-04-26T13:02:35.955Z,1.60
2019-04-26T13:03:36.022Z,1.40
2019-04-26T13:04:36.597Z,1.60
2019-04-26T13:05:36.009Z,1.60
2019-04-26T13:06:35.996Z,1.60
2019-04-26T13:07:39.081Z,1.60
2019-04-26T13:08:35.971Z,1.60
2019-04-26T13:09:36.045Z,1.70
2019-04-26T13:10:36.890Z,0.80
2019-04-26T13:11:48.391Z,1.10
2019-04-26T13:12:36.017Z,0.80
2019-04-26T13:13:36.017Z,1.50
2019-04-26T13:14:38.791Z,2.20
2019-04-26T13:15:36.013Z,1.80
2019-04-26T13:16:36.063Z,1.00
2019-04-26T13:17:37.401Z,2.40
2019-04-26T13:18:36.021Z,2.10